Time;durP1;ratioP1;P1;durP2;ratioP2;P2;SDS_P1;SDS_P2;PMS_P1;PMS_P2;Temp;Humidity;BMP_temperature;BMP_pressure;BME280_temperature;BME280_humidity;BME280_pressure;Samples;Min_cycle;Max_cycle;Signal;HPM_P1;HPM_P2
2021/11/11 00:00:29;;;;;;;40.25;13.48;;;29.70;85.50;;;;;;5146609;27;20086;-52
2021/11/11 00:02:57;;;;;;;28.98;13.90;;;29.70;85.40;;;;;;5146172;27;20027;-50
2021/11/11 00:05:25;;;;;;;39.85;14.40;;;29.70;85.30;;;;;;5146057;27;20019;-46
2021/11/11 00:07:51;;;;;;;42.95;14.65;;;29.70;85.30;;;;;;5146121;27;20050;-49
2021/11/11 00:10:20;;;;;;;42.08;13.93;;;29.70;86.00;;;;;;5145999;27;20018;-51
2021/11/11 00:12:49;;;;;;;39.72;15.07;;;29.70;86.70;;;;;;5145993;27;20019;-55
2021/11/11 00:15:16;;;;;;;41.10;14.60;;;29.70;86.80;;;;;;5145917;27;20082;-52
2021/11/11 00:17:44;;;;;;;36.97;15.13;;;29.70;87.30;;;;;;5145744;27;20019;-51
2021/11/11 00:20:13;;;;;;;35.08;14.68;;;29.60;87.10;;;;;;5145605;27;20086;-49
2021/11/11 00:22:42;;;;;;;36.00;14.35;;;29.60;87.40;;;;;;5145748;27;20023;-46
2021/11/11 00:25:10;;;;;;;37.92;13.02;;;29.60;87.50;;;;;;5145797;27;20311;-53
2021/11/11 00:27:41;;;;;;;33.55;13.35;;;29.60;87.00;;;;;;5144608;27;20076;-53
2021/11/11 00:30:12;;;;;;;27.83;12.40;;;29.60;86.60;;;;;;5145524;27;20015;-51
2021/11/11 00:32:39;;;;;;;29.67;13.40;;;29.60;86.40;;;;;;5145553;27;20018;-55
2021/11/11 00:35:09;;;;;;;38.75;14.32;;;29.60;86.40;;;;;;5145930;27;20027;-46
2021/11/11 00:37:36;;;;;;;31.08;13.50;;;29.60;86.80;;;;;;5145457;27;20068;-50
2021/11/11 00:40:04;;;;;;;26.98;12.35;;;29.60;86.70;;;;;;5145317;27;20074;-46
2021/11/11 00:42:30;;;;;;;31.67;11.98;;;29.60;86.50;;;;;;5144913;27;20019;-47
2021/11/11 00:44:57;;;;;;;30.08;13.57;;;29.60;86.80;;;;;;5145270;27;20023;-53
2021/11/11 00:47:24;;;;;;;30.15;13.95;;;29.50;86.90;;;;;;5145134;27;20029;-48
2021/11/11 00:49:51;;;;;;;28.95;13.68;;;29.60;87.00;;;;;;5145232;27;20311;-46
2021/11/11 00:52:18;;;;;;;25.25;11.55;;;29.60;87.30;;;;;;5145016;27;20115;-48
2021/11/11 00:54:45;;;;;;;25.30;12.52;;;29.50;87.30;;;;;;5145583;27;20023;-49
2021/11/11 00:57:12;;;;;;;21.50;10.98;;;29.50;87.20;;;;;;5145280;27;20387;-48
2021/11/11 00:59:42;;;;;;;22.77;11.73;;;29.50;87.40;;;;;;5145694;27;20055;-49
2021/11/11 01:02:10;;;;;;;21.90;11.63;;;29.50;87.50;;;;;;5145167;27;20019;-51
2021/11/11 01:04:39;;;;;;;23.00;10.77;;;29.50;87.70;;;;;;5145080;27;20081;-50
2021/11/11 01:07:07;;;;;;;26.35;14.02;;;29.40;87.70;;;;;;5145278;27;20254;-52
2021/11/11 01:09:38;;;;;;;31.67;15.50;;;29.40;87.70;;;;;;5145421;27;20066;-51
2021/11/11 01:12:06;;;;;;;26.65;12.82;;;29.40;87.90;;;;;;5145096;27;20023;-51
2021/11/11 01:14:33;;;;;;;26.02;12.63;;;29.40;87.80;;;;;;5145708;27;20014;-52
2021/11/11 01:17:00;;;;;;;31.48;12.65;;;29.40;88.00;;;;;;5145106;27;20131;-50
2021/11/11 01:19:27;;;;;;;19.50;11.32;;;29.40;88.00;;;;;;5145358;27;20046;-55
2021/11/11 01:21:55;;;;;;;28.02;11.60;;;29.40;88.00;;;;;;5145004;27;20027;-53
2021/11/11 01:24:21;;;;;;;23.70;11.35;;;29.40;88.00;;;;;;5145325;27;20090;-53
2021/11/11 01:26:51;;;;;;;26.00;10.90;;;29.40;88.00;;;;;;5144880;27;20053;-50
2021/11/11 01:29:18;;;;;;;17.85;10.38;;;29.40;88.00;;;;;;5145492;27;20057;-47
2021/11/11 01:31:47;;;;;;;19.05;10.02;;;29.40;88.10;;;;;;5144460;27;20087;-53
2021/11/11 01:34:13;;;;;;;27.15;10.82;;;29.40;88.00;;;;;;5145109;28;20326;-50
2021/11/11 01:36:40;;;;;;;20.98;9.95;;;29.30;88.00;;;;;;5144837;28;20223;-48
2021/11/11 01:39:07;;;;;;;22.98;11.02;;;29.30;88.10;;;;;;5144912;27;20015;-54
2021/11/11 01:41:34;;;;;;;22.27;10.20;;;29.30;88.10;;;;;;5143586;28;20034;-50
2021/11/11 01:44:01;;;;;;;19.83;10.10;;;29.30;88.00;;;;;;5144977;28;20043;-55
2021/11/11 01:46:28;;;;;;;19.63;9.57;;;29.30;88.20;;;;;;5144635;28;20023;-49
2021/11/11 01:48:57;;;;;;;20.13;10.68;;;29.30;88.10;;;;;;5145053;27;20074;-51
2021/11/11 01:51:24;;;;;;;19.50;9.98;;;29.30;88.20;;;;;;5144492;28;20175;-50
2021/11/11 01:53:51;;;;;;;19.50;9.88;;;29.30;88.10;;;;;;5145455;27;20030;-52
2021/11/11 01:56:20;;;;;;;22.67;9.73;;;29.30;88.20;;;;;;5148837;27;20026;-49
2021/11/11 01:58:47;;;;;;;22.08;9.65;;;29.30;88.20;;;;;;5149028;27;20019;-51
2021/11/11 02:01:14;;;;;;;18.58;10.00;;;29.30;88.10;;;;;;5148407;27;20219;-50
2021/11/11 02:03:44;;;;;;;18.75;8.88;;;29.30;88.10;;;;;;5148657;27;20083;-48
2021/11/11 02:06:12;;;;;;;19.83;10.27;;;29.30;88.00;;;;;;5148694;27;20215;-49
2021/11/11 02:08:38;;;;;;;15.30;9.63;;;29.30;88.00;;;;;;5148564;27;20103;-54
2021/11/11 02:11:05;;;;;;;20.48;9.65;;;29.20;87.80;;;;;;5148553;27;20019;-52
2021/11/11 02:13:32;;;;;;;18.30;10.10;;;29.20;87.80;;;;;;5148809;27;20034;-51
2021/11/11 02:15:59;;;;;;;23.17;9.40;;;29.20;87.90;;;;;;5148337;27;20016;-51
2021/11/11 02:18:25;;;;;;;18.92;9.00;;;29.20;88.40;;;;;;5147274;27;20304;-52
2021/11/11 02:20:52;;;;;;;18.08;9.77;;;29.20;87.90;;;;;;5148357;27;20211;-53
2021/11/11 02:23:20;;;;;;;22.38;9.10;;;29.20;88.10;;;;;;5148060;27;20351;-55
2021/11/11 02:25:47;;;;;;;20.92;9.55;;;29.20;88.00;;;;;;5129978;27;20219;-55
2021/11/11 02:28:16;;;;;;;22.75;9.88;;;29.20;87.90;;;;;;5148184;27;20233;-56
2021/11/11 02:30:46;;;;;;;18.60;9.10;;;29.20;87.80;;;;;;5147899;27;20039;-54
2021/11/11 02:33:23;;;;;;;16.75;9.35;;;29.20;87.80;;;;;;5148246;27;20023;-50
2021/11/11 02:35:49;;;;;;;18.02;9.45;;;29.20;87.70;;;;;;5147847;27;20022;-49
2021/11/11 02:38:17;;;;;;;36.30;10.32;;;29.20;87.70;;;;;;5147931;27;20257;-53
2021/11/11 02:40:44;;;;;;;58.25;11.88;;;29.20;87.60;;;;;;5147848;27;20030;-53
2021/11/11 02:43:12;;;;;;;56.35;12.77;;;29.20;87.50;;;;;;5147868;27;20075;-47
2021/11/11 02:45:43;;;;;;;53.35;12.15;;;29.20;87.50;;;;;;5147937;27;20057;-55
2021/11/11 02:48:12;;;;;;;35.92;11.50;;;29.20;87.50;;;;;;5147724;27;20027;-47
2021/11/11 02:50:40;;;;;;;36.47;10.63;;;29.20;87.40;;;;;;5146305;27;20037;-47
2021/11/11 02:53:08;;;;;;;26.88;9.93;;;29.10;87.10;;;;;;5147731;27;20110;-54
2021/11/11 02:55:36;;;;;;;24.38;9.80;;;29.20;87.10;;;;;;5147636;27;20229;-50
2021/11/11 02:58:04;;;;;;;26.48;10.05;;;29.10;86.90;;;;;;5147624;27;20137;-53
2021/11/11 03:00:50;;;;;;;24.92;9.77;;;29.20;86.90;;;;;;5147679;27;20074;-49
2021/11/11 03:03:18;;;;;;;28.48;10.00;;;29.10;86.70;;;;;;5147628;27;20027;-48
2021/11/11 03:05:45;;;;;;;20.80;9.68;;;29.10;86.80;;;;;;5146982;27;20215;-48
2021/11/11 03:08:12;;;;;;;21.10;10.07;;;29.10;86.70;;;;;;5147638;27;20031;-50
2021/11/11 03:10:41;;;;;;;21.95;10.35;;;29.10;86.70;;;;;;5147147;27;20315;-47
2021/11/11 03:13:09;;;;;;;18.40;9.38;;;29.10;86.70;;;;;;5147562;27;20090;-51
2021/11/11 03:15:37;;;;;;;20.00;10.18;;;29.10;86.70;;;;;;5147477;27;20041;-53
2021/11/11 03:18:04;;;;;;;20.67;8.93;;;29.10;86.80;;;;;;5147117;27;20027;-51
2021/11/11 03:20:32;;;;;;;25.42;9.95;;;29.10;86.80;;;;;;5147237;27;20011;-48
2021/11/11 03:22:58;;;;;;;24.08;10.48;;;29.10;86.60;;;;;;5147293;27;20038;-48
2021/11/11 03:25:30;;;;;;;18.85;9.48;;;29.10;86.60;;;;;;5147082;27;20015;-49
2021/11/11 03:27:57;;;;;;;19.63;9.63;;;29.10;86.60;;;;;;5147247;27;20027;-50
2021/11/11 03:30:25;;;;;;;22.13;10.50;;;29.10;86.50;;;;;;5147140;27;20015;-49
2021/11/11 03:32:53;;;;;;;22.75;9.98;;;29.10;86.50;;;;;;5146847;27;20087;-48
2021/11/11 03:35:20;;;;;;;17.75;10.10;;;29.10;86.50;;;;;;5147016;27;20128;-50
2021/11/11 03:37:49;;;;;;;19.63;9.65;;;29.10;86.70;;;;;;5146936;27;20015;-48
2021/11/11 03:40:20;;;;;;;21.23;10.13;;;29.10;86.70;;;;;;5146879;27;20064;-54
2021/11/11 03:42:48;;;;;;;19.80;10.87;;;29.10;86.90;;;;;;5146794;27;20046;-49
2021/11/11 03:45:16;;;;;;;19.83;9.88;;;29.10;86.80;;;;;;5146666;27;20021;-52
2021/11/11 03:47:43;;;;;;;18.83;10.07;;;29.10;86.80;;;;;;5146750;27;20015;-50
2021/11/11 03:50:11;;;;;;;18.38;9.40;;;29.10;86.80;;;;;;5146754;27;20052;-50
2021/11/11 03:52:38;;;;;;;20.63;9.50;;;29.00;86.70;;;;;;5146306;27;20114;-48
2021/11/11 03:55:07;;;;;;;17.75;9.45;;;29.00;86.60;;;;;;5146728;27;20026;-42
2021/11/11 03:57:34;;;;;;;18.17;9.68;;;29.00;86.60;;;;;;5146436;27;20015;-50
2021/11/11 04:00:01;;;;;;;19.15;9.90;;;29.00;86.60;;;;;;5146348;27;20264;-53
2021/11/11 04:02:28;;;;;;;19.40;9.10;;;29.00;86.60;;;;;;5146409;27;20019;-54
2021/11/11 04:04:55;;;;;;;18.27;9.40;;;29.00;86.70;;;;;;5146453;27;20050;-47
2021/11/11 04:07:21;;;;;;;18.63;9.00;;;29.00;86.70;;;;;;5146363;27;20029;-50
2021/11/11 04:09:48;;;;;;;17.38;9.52;;;29.00;86.70;;;;;;5146812;27;20023;-47
2021/11/11 04:12:15;;;;;;;19.58;9.95;;;29.00;86.90;;;;;;5146289;27;20068;-51
2021/11/11 04:14:41;;;;;;;20.77;9.68;;;29.00;86.90;;;;;;5146624;27;20311;-53
2021/11/11 04:17:09;;;;;;;18.77;10.00;;;29.00;87.00;;;;;;5145706;27;20035;-47
2021/11/11 04:19:36;;;;;;;19.33;10.82;;;29.00;87.00;;;;;;5146878;27;20019;-54
2021/11/11 04:22:03;;;;;;;18.67;12.02;;;29.00;87.60;;;;;;5146034;27;20045;-53
2021/11/11 04:24:30;;;;;;;19.05;11.25;;;28.90;87.10;;;;;;5146444;27;20031;-54
2021/11/11 04:27:16;;;;;;;21.35;12.55;;;28.90;87.10;;;;;;5146256;27;20019;-53
2021/11/11 04:29:53;;;;;;;20.85;11.77;;;29.00;87.20;;;;;;5146316;27;20054;-53
2021/11/11 04:32:20;;;;;;;20.77;10.77;;;28.90;87.10;;;;;;5145775;27;20038;-50
2021/11/11 04:34:52;;;;;;;18.80;11.15;;;28.90;87.10;;;;;;5146205;27;20016;-52
2021/11/11 04:37:27;;;;;;;19.83;11.00;;;28.90;87.20;;;;;;5146071;27;20023;-46
2021/11/11 05:04:15;;;;;;;18.83;9.35;;;28.80;87.70;;;;;;5145577;27;20023;-47
2021/11/11 05:06:41;;;;;;;17.25;9.50;;;28.80;87.10;;;;;;5145542;27;20355;-52
2021/11/11 05:09:08;;;;;;;19.80;9.45;;;28.80;87.10;;;;;;5145729;27;20050;-53
2021/11/11 05:11:35;;;;;;;19.67;9.02;;;28.80;87.00;;;;;;5145000;27;20015;-52
2021/11/11 05:14:01;;;;;;;21.48;9.40;;;28.80;87.00;;;;;;5145759;27;20259;-51
2021/11/11 05:16:28;;;;;;;16.17;8.55;;;28.80;86.90;;;;;;5145361;27;20014;-58
2021/11/11 05:18:54;;;;;;;18.90;9.15;;;28.70;86.80;;;;;;5144972;27;20022;-53
2021/11/11 05:21:21;;;;;;;17.60;8.63;;;28.80;86.90;;;;;;5145332;27;20052;-54
2021/11/11 05:23:47;;;;;;;19.30;8.75;;;28.80;86.90;;;;;;5145389;27;20050;-55
2021/11/11 05:26:14;;;;;;;17.17;8.63;;;28.70;86.70;;;;;;5145091;27;20063;-51
2021/11/11 05:28:41;;;;;;;16.98;9.27;;;28.80;86.80;;;;;;5145291;27;20062;-51
2021/11/11 05:31:07;;;;;;;18.23;9.15;;;28.70;86.70;;;;;;5145170;27;20087;-45
2021/11/11 05:33:34;;;;;;;25.48;15.45;;;28.80;86.80;;;;;;5145174;27;20296;-49
2021/11/11 05:36:01;;;;;;;27.02;16.40;;;28.80;86.80;;;;;;5144872;28;20074;-47
2021/11/11 05:38:27;;;;;;;31.02;17.90;;;28.70;86.60;;;;;;5145051;28;20023;-49
2021/11/11 05:40:54;;;;;;;35.15;18.50;;;28.80;86.90;;;;;;5144819;28;20019;-47
2021/11/11 05:43:20;;;;;;;35.58;19.73;;;28.70;86.90;;;;;;5144823;28;20064;-52
2021/11/11 05:45:47;;;;;;;33.15;18.58;;;28.70;87.00;;;;;;5145080;28;20015;-46
2021/11/11 05:48:14;;;;;;;33.22;15.98;;;28.70;87.00;;;;;;5144963;27;20102;-48
2021/11/11 05:50:40;;;;;;;22.60;14.85;;;28.70;87.10;;;;;;5144571;28;20141;-45
2021/11/11 05:53:07;;;;;;;24.95;13.75;;;28.70;86.90;;;;;;5144659;28;20102;-51
2021/11/11 05:55:34;;;;;;;27.23;13.10;;;28.70;86.90;;;;;;5144866;28;20098;-51
2021/11/11 05:58:02;;;;;;;23.17;12.68;;;28.70;86.80;;;;;;5144603;28;20061;-51
2021/11/11 06:00:28;;;;;;;24.10;11.80;;;28.70;86.80;;;;;;5144696;28;20019;-49
2021/11/11 06:02:55;;;;;;;20.65;11.45;;;28.70;86.70;;;;;;5144620;28;20027;-52
2021/11/11 06:05:22;;;;;;;19.63;11.25;;;28.70;86.80;;;;;;5144470;28;20197;-44
2021/11/11 06:07:49;;;;;;;19.23;10.80;;;28.70;86.80;;;;;;5144564;28;20019;-47
2021/11/11 06:10:16;;;;;;;21.33;11.35;;;28.70;86.70;;;;;;5144768;28;20050;-53
2021/11/11 06:12:43;;;;;;;19.00;10.48;;;28.70;86.70;;;;;;5144300;28;20030;-50
2021/11/11 06:15:10;;;;;;;19.15;10.70;;;28.70;86.70;;;;;;5144596;28;20065;-47
2021/11/11 06:17:38;;;;;;;19.02;9.77;;;28.70;86.70;;;;;;5144442;28;20083;-46
2021/11/11 06:20:56;;;;;;;21.33;9.80;;;28.70;86.70;;;;;;5144376;27;20015;-46
2021/11/11 06:22:56;;;;;;;21.85;8.95;;;28.70;86.60;;;;;;5141498;28;20080;-45
2021/11/11 06:25:23;;;;;;;17.10;9.27;;;28.70;86.50;;;;;;5144612;27;20019;-48
2021/11/11 06:27:50;;;;;;;18.77;9.38;;;28.70;86.50;;;;;;5144640;27;20020;-50
2021/11/11 06:30:17;;;;;;;17.08;9.13;;;28.60;86.40;;;;;;5144465;28;20082;-48
2021/11/11 06:32:43;;;;;;;21.58;9.13;;;28.60;86.40;;;;;;5144198;27;20023;-44
2021/11/11 06:35:10;;;;;;;20.45;9.18;;;28.60;86.40;;;;;;5144689;27;20078;-51
2021/11/11 06:37:37;;;;;;;16.15;8.38;;;28.60;86.40;;;;;;5144254;27;20011;-49
2021/11/11 06:40:05;;;;;;;12.98;8.60;;;28.60;86.30;;;;;;5145191;27;20015;-45
2021/11/11 06:42:32;;;;;;;17.83;9.35;;;28.60;86.20;;;;;;5148252;27;20082;-46
2021/11/11 06:44:59;;;;;;;14.52;8.25;;;28.60;86.20;;;;;;5148095;27;20019;-51
2021/11/11 06:47:25;;;;;;;13.40;7.93;;;28.60;86.20;;;;;;5147873;27;20026;-49
2021/11/11 06:49:52;;;;;;;26.33;9.75;;;28.60;86.10;;;;;;5147886;27;20023;-45
2021/11/11 06:52:18;;;;;;;19.13;8.63;;;28.60;86.20;;;;;;5147755;27;20096;-43
2021/11/11 06:54:45;;;;;;;13.25;7.88;;;28.60;86.20;;;;;;5148192;27;20019;-51
2021/11/11 06:57:13;;;;;;;14.77;8.77;;;28.60;86.10;;;;;;5148080;27;20193;-45
2021/11/11 06:59:40;;;;;;;16.80;8.52;;;28.60;86.20;;;;;;5148184;27;20031;-44
2021/11/11 07:02:07;;;;;;;18.10;8.40;;;28.60;86.20;;;;;;5147573;27;20311;-47
2021/11/11 07:04:34;;;;;;;18.33;7.97;;;28.60;86.10;;;;;;5148019;27;20098;-52
2021/11/11 07:07:01;;;;;;;12.70;8.40;;;28.60;86.00;;;;;;5147716;27;20026;-48
2021/11/11 07:09:28;;;;;;;16.55;7.57;;;28.50;85.90;;;;;;5147872;27;20180;-52
2021/11/11 07:11:54;;;;;;;20.98;8.10;;;28.50;85.90;;;;;;5147770;27;20035;-49
2021/11/11 07:14:21;;;;;;;18.98;7.75;;;28.50;85.80;;;;;;5147976;27;20199;-51
2021/11/11 07:16:47;;;;;;;18.98;8.00;;;28.50;85.80;;;;;;5147370;27;20023;-48
2021/11/11 07:19:14;;;;;;;19.83;8.10;;;28.50;85.80;;;;;;5147739;27;20019;-48
2021/11/11 07:21:41;;;;;;;18.30;7.78;;;28.50;85.80;;;;;;5147275;27;20266;-52
2021/11/11 07:24:07;;;;;;;17.27;8.15;;;28.50;85.80;;;;;;5147687;27;20087;-47
2021/11/11 07:26:34;;;;;;;14.85;7.82;;;28.50;85.80;;;;;;5147213;27;20023;-50
2021/11/11 07:29:00;;;;;;;13.40;7.15;;;28.50;85.70;;;;;;5147641;27;20019;-54
2021/11/11 07:31:27;;;;;;;16.85;7.82;;;28.50;85.70;;;;;;5147071;27;20030;-51
2021/11/11 07:33:54;;;;;;;16.15;7.70;;;28.50;85.60;;;;;;5147525;27;20031;-51
2021/11/11 07:36:21;;;;;;;18.58;7.47;;;28.50;85.70;;;;;;5147034;27;20315;-49
2021/11/11 07:38:47;;;;;;;18.65;8.05;;;28.50;85.70;;;;;;5147082;27;20023;-48
2021/11/11 07:41:14;;;;;;;17.15;7.55;;;28.40;85.60;;;;;;5146869;27;20023;-51
2021/11/11 07:43:40;;;;;;;14.30;7.70;;;28.40;85.60;;;;;;5147120;27;20078;-47
2021/11/11 07:46:07;;;;;;;15.40;7.18;;;28.40;85.50;;;;;;5146846;27;20315;-45
2021/11/11 07:48:34;;;;;;;18.00;7.68;;;28.40;85.40;;;;;;5146894;27;20023;-49
2021/11/11 07:51:04;;;;;;;14.15;7.38;;;28.40;85.40;;;;;;5146163;27;20046;-49
2021/11/11 07:53:31;;;;;;;16.17;7.85;;;28.40;85.30;;;;;;5146430;27;20047;-45
2021/11/11 07:55:57;;;;;;;17.88;7.63;;;28.40;85.20;;;;;;5146548;27;20011;-45
2021/11/11 07:58:24;;;;;;;16.63;7.50;;;28.40;85.20;;;;;;5146840;27;20056;-42
2021/11/11 08:00:51;;;;;;;16.30;7.38;;;28.40;85.20;;;;;;5146507;27;20038;-43
2021/11/11 08:03:18;;;;;;;15.85;7.22;;;28.40;85.10;;;;;;5146496;27;20076;-44
2021/11/11 08:05:45;;;;;;;16.30;7.57;;;28.40;85.10;;;;;;5146439;27;20090;-48
2021/11/11 08:08:12;;;;;;;11.50;7.28;;;28.40;85.00;;;;;;5146464;27;20049;-49
2021/11/11 08:10:39;;;;;;;19.38;7.72;;;28.40;85.00;;;;;;5146437;27;20015;-45
2021/11/11 08:13:06;;;;;;;13.73;7.25;;;28.40;84.90;;;;;;5146440;27;20019;-46
2021/11/11 08:15:33;;;;;;;13.27;7.35;;;28.40;84.90;;;;;;5146229;27;20136;-52
2021/11/11 08:18:00;;;;;;;16.60;7.50;;;28.40;84.80;;;;;;5146150;27;20041;-49
2021/11/11 08:20:27;;;;;;;15.38;7.57;;;28.40;84.70;;;;;;5146064;27;20038;-50
2021/11/11 08:22:53;;;;;;;16.55;7.95;;;28.40;84.60;;;;;;5146135;27;20024;-43
2021/11/11 08:25:21;;;;;;;15.55;7.20;;;28.40;84.60;;;;;;5146052;27;20016;-47
2021/11/11 08:27:49;;;;;;;16.08;8.02;;;28.40;84.60;;;;;;5145994;27;20025;-47
2021/11/11 08:30:18;;;;;;;17.23;7.57;;;28.30;84.50;;;;;;5145933;27;20326;-45
2021/11/11 08:32:46;;;;;;;17.40;6.88;;;28.40;84.40;;;;;;5145632;27;20023;-47
2021/11/11 08:35:14;;;;;;;13.57;7.03;;;28.40;84.30;;;;;;5146037;27;20276;-50
2021/11/11 08:37:43;;;;;;;15.27;6.60;;;28.40;84.10;;;;;;5145770;27;20086;-49
2021/11/11 08:40:11;;;;;;;15.60;6.82;;;28.40;84.00;;;;;;5145734;27;20027;-51
2021/11/11 08:42:37;;;;;;;13.00;7.07;;;28.40;84.00;;;;;;5145704;27;20019;-48
2021/11/11 08:45:06;;;;;;;15.40;6.93;;;28.30;83.90;;;;;;5145725;27;20249;-48
2021/11/11 08:47:33;;;;;;;14.68;6.63;;;28.40;84.00;;;;;;5145442;27;20090;-45
2021/11/11 08:49:59;;;;;;;19.27;7.00;;;28.30;83.90;;;;;;5145670;27;20015;-45
2021/11/11 08:52:27;;;;;;;12.48;6.95;;;28.30;83.80;;;;;;5145461;27;20073;-43
2021/11/11 08:54:54;;;;;;;15.85;6.57;;;28.30;83.70;;;;;;5145912;27;20027;-49
2021/11/11 08:57:21;;;;;;;13.15;6.63;;;28.30;83.60;;;;;;5145524;27;20011;-44
2021/11/11 08:59:54;;;;;;;14.50;6.75;;;28.30;83.50;;;;;;5145998;27;20331;-49
2021/11/11 09:02:21;;;;;;;19.48;7.32;;;28.30;83.60;;;;;;5145347;27;20038;-46
2021/11/11 09:04:50;;;;;;;12.40;6.80;;;28.30;83.80;;;;;;5145786;27;20350;-45
2021/11/11 09:07:17;;;;;;;10.98;6.50;;;28.30;84.10;;;;;;5145350;27;20098;-55
2021/11/11 09:09:46;;;;;;;15.70;6.15;;;28.30;84.00;;;;;;5145744;27;20027;-44
2021/11/11 09:12:15;;;;;;;16.05;6.88;;;28.30;83.90;;;;;;5145176;27;20038;-50
2021/11/11 09:14:42;;;;;;;16.00;6.75;;;28.20;83.60;;;;;;5145526;27;20027;-52
2021/11/11 09:17:09;;;;;;;17.02;6.70;;;28.20;83.50;;;;;;5145192;27;20019;-45
2021/11/11 09:19:35;;;;;;;17.02;6.32;;;28.20;83.20;;;;;;5145123;27;20023;-43
2021/11/11 09:22:02;;;;;;;11.60;6.05;;;28.20;83.10;;;;;;5145038;27;20045;-52
2021/11/11 09:24:29;;;;;;;12.15;6.55;;;28.20;82.90;;;;;;5145632;27;20027;-49
2021/11/11 09:26:56;;;;;;;17.42;6.18;;;28.20;82.80;;;;;;5145057;27;20209;-50
2021/11/11 09:29:23;;;;;;;13.45;6.30;;;28.20;82.60;;;;;;5145289;27;20027;-53
2021/11/11 09:31:50;;;;;;;13.70;6.80;;;28.20;82.70;;;;;;5144911;27;20034;-50
2021/11/11 09:34:16;;;;;;;14.88;6.25;;;28.20;83.00;;;;;;5145310;27;20023;-47
2021/11/11 09:36:43;;;;;;;12.55;5.53;;;28.20;83.00;;;;;;5145235;27;20327;-51
2021/11/11 09:39:10;;;;;;;11.75;5.97;;;28.20;82.80;;;;;;5145254;28;20027;-51
2021/11/11 09:41:39;;;;;;;10.55;5.85;;;28.20;82.80;;;;;;5144931;28;20019;-51
2021/11/11 09:44:06;;;;;;;13.50;6.45;;;28.20;82.50;;;;;;5145473;27;20046;-54
2021/11/11 09:46:33;;;;;;;11.45;5.75;;;28.20;82.30;;;;;;5144896;27;20035;-52
2021/11/11 09:49:00;;;;;;;9.82;5.45;;;28.20;82.10;;;;;;5144900;27;20027;-46
2021/11/11 09:51:27;;;;;;;15.82;6.35;;;28.10;81.80;;;;;;5144612;27;20039;-49
2021/11/11 09:59:30;;;;;;;10.48;5.10;;;28.10;81.40;;;;;;5145191;28;20026;-46
2021/11/11 10:01:58;;;;;;;9.27;5.00;;;28.10;81.00;;;;;;5144687;27;20031;-50
2021/11/11 10:04:24;;;;;;;17.83;6.05;;;28.10;80.90;;;;;;5145027;27;20030;-46
2021/11/11 10:06:51;;;;;;;14.30;5.80;;;28.00;80.50;;;;;;5144699;27;20338;-49
2021/11/11 10:09:23;;;;;;;11.60;5.80;;;28.10;80.70;;;;;;5145155;27;20038;-49
2021/11/11 10:11:55;;;;;;;11.25;5.65;;;28.10;80.50;;;;;;5144520;27;20374;-48
2021/11/11 10:14:29;;;;;;;17.50;5.63;;;28.00;80.30;;;;;;5145036;27;20031;-49
2021/11/11 10:16:58;;;;;;;10.35;5.43;;;28.10;80.10;;;;;;5148515;27;20234;-49
2021/11/11 10:19:27;;;;;;;10.68;5.18;;;28.00;80.00;;;;;;5148558;27;20056;-50
2021/11/11 10:22:04;;;;;;;12.07;5.20;;;28.00;79.70;;;;;;5148553;27;20076;-48
2021/11/11 10:24:34;;;;;;;17.85;5.55;;;28.00;79.50;;;;;;5149007;27;20031;-52
2021/11/11 10:28:03;;;;;;;12.93;5.38;;;28.00;79.50;;;;;;5148662;27;20019;-46
2021/11/11 10:30:19;;;;;;;13.95;5.50;;;28.00;79.50;;;;;;5139328;27;20031;-45
2021/11/11 10:32:53;;;;;;;12.63;5.45;;;27.90;79.00;;;;;;5148257;27;20269;-47
2021/11/11 10:35:21;;;;;;;7.95;4.85;;;28.00;79.30;;;;;;5148247;27;20330;-47
2021/11/11 10:37:57;;;;;;;8.88;5.05;;;27.90;79.10;;;;;;5148113;27;20124;-57
2021/11/11 10:40:37;;;;;;;9.10;5.20;;;27.90;79.00;;;;;;5148452;27;20051;-49
2021/11/11 10:43:10;;;;;;;12.02;4.60;;;28.00;78.90;;;;;;5148196;27;20061;-48
2021/11/11 10:45:40;;;;;;;10.77;5.10;;;27.90;78.80;;;;;;5148016;27;20015;-50
2021/11/11 10:48:10;;;;;;;11.10;4.88;;;27.90;78.80;;;;;;5148122;27;20023;-45
2021/11/11 10:50:46;;;;;;;13.18;4.65;;;27.90;78.40;;;;;;5147669;27;20015;-49
2021/11/11 10:53:15;;;;;;;13.95;4.93;;;27.90;78.30;;;;;;5147919;27;20287;-46
2021/11/11 10:55:47;;;;;;;12.95;5.10;;;27.90;78.20;;;;;;5147696;27;20018;-50
2021/11/11 10:58:16;;;;;;;12.00;5.30;;;27.90;77.90;;;;;;5147932;27;20027;-42
2021/11/11 11:01:07;;;;;;;11.52;5.10;;;27.90;78.10;;;;;;5147773;27;20021;-45
2021/11/11 11:03:45;;;;;;;9.30;4.75;;;27.90;78.40;;;;;;5147524;27;20019;-51
2021/11/11 11:06:21;;;;;;;9.63;4.90;;;27.90;77.90;;;;;;5147407;27;20019;-44
2021/11/11 11:08:50;;;;;;;9.35;5.28;;;27.90;77.90;;;;;;5147987;27;20230;-49
2021/11/11 11:11:21;;;;;;;13.27;5.40;;;27.90;78.00;;;;;;5147455;27;20019;-50
2021/11/11 11:14:03;;;;;;;11.75;5.35;;;27.90;77.80;;;;;;5147518;27;20020;-46
2021/11/11 11:16:34;;;;;;;10.15;5.15;;;27.90;77.80;;;;;;5147618;27;20184;-46
2021/11/11 11:19:08;;;;;;;11.60;5.80;;;27.90;77.80;;;;;;5147566;27;20505;-43
2021/11/11 11:21:51;;;;;;;11.38;5.78;;;27.90;77.90;;;;;;5147273;27;20040;-42
2021/11/11 11:24:31;;;;;;;10.55;5.55;;;27.90;77.90;;;;;;5147577;27;20023;-45
2021/11/11 11:27:04;;;;;;;13.13;5.93;;;27.90;77.90;;;;;;5147043;27;20027;-47
2021/11/11 11:32:09;;;;;;;11.93;5.90;;;27.90;78.10;;;;;;5147162;27;20289;-43
2021/11/11 11:34:45;;;;;;;9.63;5.88;;;27.90;78.20;;;;;;5147340;27;20038;-49
2021/11/11 11:37:14;;;;;;;14.75;5.65;;;27.90;78.40;;;;;;5147032;27;20045;-47
2021/11/11 11:39:55;;;;;;;15.68;6.05;;;27.90;78.60;;;;;;5147265;27;20303;-43
2021/11/11 11:42:30;;;;;;;17.10;6.40;;;27.90;78.70;;;;;;5146832;27;20242;-45
2021/11/11 11:44:59;;;;;;;11.90;5.70;;;27.90;78.90;;;;;;5147185;27;20094;-49
2021/11/11 11:50:22;;;;;;;16.35;5.97;;;28.00;79.40;;;;;;5146786;27;20328;-50
2021/11/11 11:52:59;;;;;;;12.23;5.90;;;27.90;79.40;;;;;;5146626;27;20356;-44
2021/11/11 12:06:07;;;;;;;13.70;6.40;;;28.00;79.90;;;;;;5146435;27;20015;-43
2021/11/11 12:08:44;;;;;;;14.25;6.30;;;28.00;79.90;;;;;;5146315;27;20046;-47
2021/11/11 12:16:43;;;;;;;16.23;6.18;;;28.10;79.80;;;;;;5146338;27;20014;-42
2021/11/11 12:39:49;;;;;;;15.55;5.70;;;28.20;78.70;;;;;;5145784;27;20095;-52
2021/11/11 12:42:17;;;;;;;13.35;5.80;;;28.30;78.90;;;;;;5145700;27;20023;-48
2021/11/11 12:44:59;;;;;;;15.60;5.65;;;28.30;79.00;;;;;;5146244;27;20023;-50
2021/11/11 12:48:05;;;;;;;17.30;5.88;;;28.30;79.00;;;;;;5145686;27;20015;-53
2021/11/11 12:50:38;;;;;;;14.57;5.95;;;28.30;79.00;;;;;;5145402;27;20035;-47
2021/11/11 12:53:13;;;;;;;16.63;6.28;;;28.30;79.10;;;;;;5145788;27;20235;-48
2021/11/11 12:56:00;;;;;;;14.52;5.97;;;28.30;79.10;;;;;;5145409;27;20038;-48
2021/11/11 12:58:44;;;;;;;19.65;6.10;;;28.40;79.20;;;;;;5145630;27;20207;-51
2021/11/11 13:01:23;;;;;;;17.00;5.97;;;28.40;78.90;;;;;;5145469;27;20043;-54
2021/11/11 13:03:54;;;;;;;14.80;6.07;;;28.40;78.90;;;;;;5145740;27;20039;-53
2021/11/11 13:06:33;;;;;;;12.25;5.82;;;28.40;79.10;;;;;;5145131;27;20019;-48
2021/11/11 13:09:06;;;;;;;15.85;6.07;;;28.40;79.10;;;;;;5145652;27;20046;-53
2021/11/11 13:11:35;;;;;;;23.73;6.25;;;28.40;78.90;;;;;;5144880;27;20031;-47
2021/11/11 13:14:19;;;;;;;14.73;6.20;;;28.40;78.70;;;;;;5145781;27;20181;-53
2021/11/11 13:17:10;;;;;;;21.08;7.65;;;28.40;78.50;;;;;;5145008;27;20023;-49
2021/11/11 13:19:44;;;;;;;17.70;7.55;;;28.40;78.20;;;;;;5145007;27;20023;-49
2021/11/11 13:22:24;;;;;;;24.42;8.05;;;28.40;78.40;;;;;;5145299;27;20023;-55
2021/11/11 16:26:27;;;;;;;13.25;6.30;;;29.30;73.80;;;;;;5145960;27;20011;-54
2021/11/11 16:28:58;;;;;;;17.48;6.43;;;29.40;73.70;;;;;;5146215;27;20027;-52
2021/11/11 16:31:26;;;;;;;14.35;6.72;;;29.40;73.50;;;;;;5145819;27;20015;-55
2021/11/11 16:33:53;;;;;;;19.73;7.10;;;29.40;73.00;;;;;;5146138;27;20234;-48
2021/11/11 16:36:20;;;;;;;16.38;7.10;;;29.40;73.00;;;;;;5145964;27;20019;-50
2021/11/11 16:38:50;;;;;;;15.07;6.18;;;29.50;72.80;;;;;;5145901;27;20023;-46
2021/11/11 16:41:18;;;;;;;19.52;6.95;;;29.50;72.50;;;;;;5145909;27;20308;-47
2021/11/11 16:43:45;;;;;;;19.17;7.18;;;29.50;72.50;;;;;;5146104;27;20215;-53
2021/11/11 16:46:12;;;;;;;16.15;6.10;;;29.50;72.30;;;;;;5145487;27;20027;-52
2021/11/11 16:48:40;;;;;;;12.93;6.15;;;29.50;72.40;;;;;;5145720;27;20023;-48
2021/11/11 16:51:09;;;;;;;15.65;6.45;;;29.60;72.40;;;;;;5145642;27;20352;-47
2021/11/11 16:53:36;;;;;;;13.50;6.30;;;29.60;72.10;;;;;;5145719;27;20029;-49
2021/11/11 16:56:04;;;;;;;13.82;6.13;;;29.60;72.20;;;;;;5145687;27;20082;-51